createdAt,value
2022-08-17T00:00:43.214Z,5.07
2022-08-17T00:03:38.506Z,4.75
2022-08-17T00:07:21.243Z,4.75
2022-08-17T00:09:48.506Z,4.38
2022-08-17T00:12:43.683Z,4.95
2022-08-17T00:15:08.288Z,5.53
2022-08-17T00:17:38.410Z,5.18
2022-08-17T00:21:23.904Z,5.40
2022-08-17T00:25:07.593Z,4.97
2022-08-17T00:27:36.881Z,5.38
2022-08-17T00:30:10.243Z,5.03
2022-08-17T00:33:52.809Z,5.70
2022-08-17T00:37:35.420Z,5.32
2022-08-17T00:40:05.471Z,5.60
2022-08-17T00:42:33.689Z,5.57
2022-08-17T00:45:01.281Z,5.25
2022-08-17T00:48:44.369Z,4.75
2022-08-17T00:52:27.553Z,4.93
2022-08-17T00:56:10.224Z,4.78
2022-08-17T01:00:01.731Z,4.43
2022-08-17T01:03:45.699Z,4.88
2022-08-17T01:06:13.798Z,4.80
2022-08-17T01:08:42.389Z,5.07
2022-08-17T01:11:10.226Z,4.80
2022-08-17T01:13:43.318Z,4.68
2022-08-17T01:16:32.312Z,5.15
2022-08-17T01:19:09.168Z,4.85
2022-08-17T01:21:48.095Z,5.18
2022-08-17T01:24:17.115Z,4.85
2022-08-17T01:26:46.243Z,5.00
2022-08-17T01:29:14.461Z,5.20
2022-08-17T01:31:53.519Z,5.07
2022-08-17T01:34:22.187Z,5.22
2022-08-17T01:36:51.900Z,5.07
2022-08-17T01:39:45.407Z,5.25
2022-08-17T01:42:39.738Z,5.32
2022-08-17T01:45:17.602Z,5.00
2022-08-17T01:47:45.728Z,5.00
2022-08-17T01:50:32.384Z,5.00
2022-08-17T01:53:10.379Z,5.22
2022-08-17T01:55:47.779Z,5.40
2022-08-17T01:58:15.382Z,4.82
2022-08-17T02:01:00.084Z,5.15
2022-08-17T02:03:30.296Z,5.15
2022-08-17T02:05:58.301Z,5.15
2022-08-17T02:08:39.562Z,5.28
2022-08-17T02:11:19.581Z,5.40
2022-08-17T02:13:57.953Z,5.80
2022-08-17T02:16:37.814Z,5.50
2022-08-17T02:19:15.818Z,5.03
2022-08-17T02:21:49.018Z,5.13
2022-08-17T02:25:00.359Z,5.00
2022-08-17T02:27:22.122Z,5.10
2022-08-17T02:29:49.635Z,5.28
2022-08-17T02:32:28.114Z,5.50
2022-08-17T02:34:58.343Z,5.67
2022-08-17T02:37:28.687Z,5.53
2022-08-17T02:39:58.558Z,5.40
2022-08-17T02:42:40.772Z,5.68
2022-08-17T02:45:23.446Z,5.70
2022-08-17T02:47:52.298Z,5.00
2022-08-17T02:50:24.188Z,5.40
2022-08-17T02:53:02.544Z,5.72
2022-08-17T02:55:38.013Z,5.72
2022-08-17T02:58:06.079Z,5.80
2022-08-17T03:00:47.850Z,5.65
2022-08-17T03:03:20.373Z,5.65
2022-08-17T03:05:53.491Z,5.85
2022-08-17T03:08:21.315Z,5.57
2022-08-17T03:10:50.190Z,5.88
2022-08-17T03:13:17.778Z,5.60
2022-08-17T03:15:47.329Z,6.00
2022-08-17T03:18:25.051Z,5.50
2022-08-17T03:20:58.681Z,6.03
2022-08-17T03:23:29.627Z,6.90
2022-08-17T03:25:58.769Z,7.05
2022-08-17T03:28:28.212Z,7.55
2022-08-17T03:30:55.495Z,7.00
2022-08-17T03:33:23.080Z,7.15
2022-08-17T03:35:50.842Z,7.70
2022-08-17T03:38:18.708Z,8.15
2022-08-17T03:40:57.975Z,7.40
2022-08-17T03:43:31.722Z,7.10
2022-08-17T03:46:34.315Z,7.35
2022-08-17T03:49:26.342Z,7.90
2022-08-17T03:52:15.333Z,7.88
2022-08-17T03:55:03.812Z,7.45
2022-08-17T03:57:32.476Z,7.72
2022-08-17T03:59:59.906Z,7.68
2022-08-17T04:02:33.198Z,7.15
2022-08-17T04:05:01.154Z,7.72
2022-08-17T04:07:31.827Z,8.23
2022-08-17T04:09:59.804Z,7.78
2022-08-17T04:12:31.611Z,7.22
2022-08-17T04:15:03.813Z,7.20
2022-08-17T04:17:30.981Z,6.88
2022-08-17T04:19:58.333Z,6.85
2022-08-17T04:22:30.996Z,7.20
2022-08-17T04:25:18.532Z,7.28
2022-08-17T04:27:45.772Z,7.00
2022-08-17T04:30:13.614Z,7.40
2022-08-17T04:33:20.115Z,7.30
2022-08-17T04:35:54.547Z,7.65
2022-08-17T04:38:27.134Z,7.10
2022-08-17T04:41:15.859Z,6.97
2022-08-17T04:43:46.650Z,7.30
2022-08-17T04:46:19.518Z,7.72
2022-08-17T04:48:52.544Z,7.80
2022-08-17T04:51:35.389Z,7.68
2022-08-17T04:54:10.538Z,7.22
2022-08-17T04:56:39.446Z,8.30
2022-08-17T04:59:21.095Z,8.20
2022-08-17T05:01:51.678Z,8.13
2022-08-17T05:04:35.131Z,8.00
2022-08-17T05:07:04.461Z,7.95
2022-08-17T05:09:32.445Z,6.72
2022-08-17T05:12:05.935Z,6.65
2022-08-17T05:14:33.952Z,6.45
2022-08-17T05:17:09.439Z,6.90
2022-08-17T05:19:38.659Z,7.32
2022-08-17T05:22:06.426Z,7.25
2022-08-17T05:24:42.716Z,7.35
2022-08-17T05:27:21.302Z,8.10
2022-08-17T05:29:51.070Z,7.40
2022-08-17T05:32:39.407Z,8.02
2022-08-17T05:35:08.494Z,7.00
2022-08-17T05:37:35.699Z,6.78
2022-08-17T05:40:03.700Z,6.60
2022-08-17T05:42:31.169Z,5.90
2022-08-17T05:44:58.840Z,5.25
2022-08-17T05:47:27.663Z,5.55
2022-08-17T05:49:55.513Z,6.15
2022-08-17T05:53:22.079Z,4.78
2022-08-17T05:56:41.078Z,4.95
2022-08-17T05:59:19.916Z,4.68
2022-08-17T06:02:11.655Z,4.53
2022-08-17T06:05:17.177Z,5.00
2022-08-17T06:08:24.989Z,5.03
2022-08-17T06:11:10.780Z,5.53
2022-08-17T06:14:22.703Z,4.50
2022-08-17T06:17:00.981Z,4.38
2022-08-17T06:19:44.559Z,5.10
2022-08-17T06:22:18.745Z,4.28
2022-08-17T06:25:01.233Z,4.45
2022-08-17T06:27:53.627Z,4.65
2022-08-17T06:30:36.720Z,4.65
2022-08-17T06:33:34.279Z,4.38
2022-08-17T06:36:18.621Z,4.10
2022-08-17T06:39:31.852Z,4.38
2022-08-17T06:43:02.597Z,4.30
2022-08-17T06:45:43.971Z,3.53
2022-08-17T06:48:31.595Z,3.80
2022-08-17T06:51:22.957Z,3.88
2022-08-17T06:54:07.125Z,3.60
2022-08-17T06:57:16.645Z,3.72
2022-08-17T07:00:00.618Z,4.60
2022-08-17T07:02:54.294Z,3.97
2022-08-17T07:06:27.598Z,5.45
2022-08-17T07:09:13.897Z,4.00
2022-08-17T07:12:03.281Z,4.60
2022-08-17T07:14:36.686Z,4.90
2022-08-17T07:17:46.793Z,4.60
2022-08-17T07:20:22.710Z,4.38
2022-08-17T07:23:19.077Z,3.90
2022-08-17T07:25:46.692Z,4.90
2022-08-17T07:28:22.901Z,4.20
2022-08-17T07:30:55.059Z,4.07
2022-08-17T07:33:28.527Z,4.15
2022-08-17T07:35:58.210Z,4.47
2022-08-17T07:38:35.439Z,4.10
2022-08-17T07:41:10.616Z,3.22
2022-08-17T07:43:41.181Z,3.70
2022-08-17T07:46:30.001Z,4.28
2022-08-17T07:49:08.792Z,3.85
2022-08-17T07:51:44.080Z,3.90
2022-08-17T07:54:22.526Z,3.50
2022-08-17T07:57:32.234Z,3.92
2022-08-17T08:00:15.310Z,3.83
2022-08-17T08:03:00.126Z,3.60
2022-08-17T08:05:50.266Z,3.88
2022-08-17T08:08:42.268Z,4.00
2022-08-17T08:11:15.515Z,4.43
2022-08-17T08:13:45.652Z,4.40
2022-08-17T08:16:33.471Z,4.45
2022-08-17T08:19:02.715Z,4.25
2022-08-17T08:21:48.417Z,4.43
2022-08-17T08:24:43.015Z,4.35
2022-08-17T08:27:22.276Z,4.07
2022-08-17T08:30:21.544Z,4.55
2022-08-17T08:33:39.873Z,4.55
2022-08-17T08:37:20.628Z,4.45
2022-08-17T08:40:40.823Z,4.72
2022-08-17T08:44:02.572Z,4.40
2022-08-17T08:47:00.839Z,4.43
2022-08-17T08:50:04.867Z,4.93
2022-08-17T08:53:15.970Z,5.05
2022-08-17T08:56:06.294Z,5.30
2022-08-17T08:59:25.492Z,5.47
2022-08-17T09:02:17.149Z,5.60
2022-08-17T09:05:14.219Z,5.28
2022-08-17T09:07:46.509Z,4.60
2022-08-17T09:10:34.903Z,4.72
2022-08-17T09:13:54.639Z,4.80
2022-08-17T09:17:19.172Z,4.65
2022-08-17T09:20:27.380Z,4.82
2022-08-17T09:23:15.261Z,5.05
2022-08-17T09:26:41.646Z,4.80
2022-08-17T09:29:18.028Z,4.60
2022-08-17T09:31:59.653Z,4.70
2022-08-17T09:35:14.429Z,5.40
2022-08-17T09:37:59.155Z,4.82
2022-08-17T09:40:49.314Z,5.15
2022-08-17T09:43:48.184Z,5.13
2022-08-17T09:46:34.566Z,4.63
2022-08-17T09:49:36.203Z,4.88
2022-08-17T09:52:27.432Z,5.35
2022-08-17T09:54:58.119Z,5.43
2022-08-17T09:57:43.652Z,5.38
2022-08-17T10:00:31.627Z,4.82
2022-08-17T10:03:39.063Z,4.53
2022-08-17T10:06:30.375Z,5.03
2022-08-17T10:09:15.572Z,4.78
2022-08-17T10:12:17.472Z,5.15
2022-08-17T10:15:59.125Z,5.13
2022-08-17T10:19:22.963Z,5.45
2022-08-17T10:22:34.600Z,4.90
2022-08-17T10:25:30.199Z,4.75
2022-08-17T10:29:25.428Z,5.38
2022-08-17T10:33:15.450Z,4.40
2022-08-17T10:36:58.449Z,5.13
2022-08-17T10:40:42.645Z,4.68
2022-08-17T10:43:44.746Z,4.63
2022-08-17T10:47:11.734Z,4.80
2022-08-17T10:49:47.808Z,5.05
2022-08-17T10:53:30.781Z,4.40
2022-08-17T10:57:13.055Z,4.15
2022-08-17T10:59:41.901Z,4.13
2022-08-17T11:02:43.856Z,3.90
2022-08-17T11:06:26.492Z,3.92
2022-08-17T11:10:09.057Z,4.10
2022-08-17T11:13:53.421Z,4.80
2022-08-17T11:17:36.321Z,4.78
2022-08-17T11:20:25.024Z,4.30
2022-08-17T11:23:19.667Z,4.43
2022-08-17T11:25:58.541Z,4.50
2022-08-17T11:28:34.582Z,3.60
2022-08-17T11:31:37.940Z,3.50
2022-08-17T11:34:21.298Z,2.97
2022-08-17T11:37:28.875Z,3.05
2022-08-17T11:40:14.889Z,3.20
2022-08-17T11:43:25.326Z,2.58
2022-08-17T11:46:16.979Z,2.42
2022-08-17T11:49:12.121Z,2.60
2022-08-17T11:52:01.463Z,3.00
2022-08-17T11:54:47.334Z,2.95
2022-08-17T11:57:26.681Z,2.75
2022-08-17T12:00:08.640Z,2.63
2022-08-17T12:02:47.419Z,2.83
2022-08-17T12:05:16.887Z,2.55
2022-08-17T12:08:06.164Z,2.67
2022-08-17T12:10:48.016Z,2.63
2022-08-17T12:13:19.118Z,2.50
2022-08-17T12:15:52.782Z,2.67
2022-08-17T12:18:28.473Z,2.28
2022-08-17T12:21:16.641Z,2.50
2022-08-17T12:24:22.841Z,2.40
2022-08-17T12:26:59.766Z,2.20
2022-08-17T12:29:38.392Z,2.40
2022-08-17T12:32:18.260Z,2.50
2022-08-17T12:34:49.445Z,2.70
2022-08-17T12:37:21.871Z,2.80
2022-08-17T12:40:24.306Z,2.50
2022-08-17T12:43:07.648Z,2.70
2022-08-17T12:45:39.810Z,2.85
2022-08-17T12:48:26.915Z,2.80
2022-08-17T12:51:03.737Z,2.80
2022-08-17T12:53:36.872Z,2.58
2022-08-17T12:56:13.314Z,2.50
2022-08-17T12:58:54.039Z,3.13
2022-08-17T13:01:23.338Z,2.53
2022-08-17T13:03:59.732Z,2.78
2022-08-17T13:06:36.557Z,2.58
2022-08-17T13:09:35.949Z,2.40
2022-08-17T13:12:08.648Z,2.60
2022-08-17T13:14:36.193Z,2.40
2022-08-17T13:17:11.114Z,2.63
2022-08-17T13:19:49.859Z,2.55
2022-08-17T13:22:24.029Z,2.58
2022-08-17T13:25:07.018Z,2.70
2022-08-17T13:27:34.725Z,2.70
2022-08-17T13:30:12.201Z,2.70
2022-08-17T13:32:48.595Z,2.75
2022-08-17T13:39:25.366Z,2.70
2022-08-17T13:41:56.026Z,2.55
2022-08-17T13:44:40.407Z,2.70
2022-08-17T13:47:21.129Z,2.65
2022-08-17T13:49:49.579Z,2.47
2022-08-17T13:52:43.479Z,2.28
2022-08-17T13:55:22.201Z,2.70
2022-08-17T13:58:04.205Z,2.42
2022-08-17T14:00:36.831Z,2.70
2022-08-17T14:03:05.931Z,2.40
2022-08-17T14:05:33.895Z,2.60
2022-08-17T14:08:06.933Z,2.65
2022-08-17T14:10:36.911Z,2.65
2022-08-17T14:13:06.546Z,2.80
2022-08-17T14:15:54.003Z,2.80
2022-08-17T14:18:53.491Z,2.58
2022-08-17T14:21:10.876Z,2.50
2022-08-17T14:23:38.419Z,2.70
2022-08-17T14:26:06.276Z,2.53
2022-08-17T14:28:33.588Z,2.78
2022-08-17T14:31:03.693Z,2.83
2022-08-17T14:33:31.037Z,2.40
2022-08-17T14:35:58.640Z,2.55
2022-08-17T14:38:26.245Z,2.28
2022-08-17T14:40:54.132Z,2.50
2022-08-17T14:43:21.428Z,2.70
2022-08-17T14:45:48.667Z,2.60
2022-08-17T14:48:16.223Z,3.10
2022-08-17T14:50:44.204Z,3.10
2022-08-17T14:53:16.059Z,3.20
2022-08-17T14:55:45.762Z,2.78
2022-08-17T14:58:14.589Z,3.05
2022-08-17T15:00:43.586Z,3.10
2022-08-17T15:03:11.737Z,2.95
2022-08-17T15:05:39.929Z,2.75
2022-08-17T15:08:07.979Z,3.10
2022-08-17T15:10:40.239Z,3.13
2022-08-17T15:13:23.485Z,2.88
2022-08-17T15:15:52.312Z,2.60
2022-08-17T15:18:20.064Z,2.63
2022-08-17T15:20:50.031Z,2.90
2022-08-17T15:23:22.124Z,3.05
2022-08-17T15:25:53.251Z,3.08
2022-08-17T15:28:25.015Z,2.72
2022-08-17T15:30:54.179Z,2.90
2022-08-17T15:33:29.447Z,2.60
2022-08-17T15:36:02.114Z,3.20
2022-08-17T15:38:35.210Z,2.85
2022-08-17T15:41:02.719Z,3.10
2022-08-17T15:43:32.629Z,3.08
2022-08-17T15:46:18.800Z,2.80
2022-08-17T15:48:50.931Z,2.90
2022-08-17T15:51:24.185Z,3.20
2022-08-17T15:54:04.557Z,3.28
2022-08-17T15:57:04.521Z,3.20
2022-08-17T15:59:31.762Z,3.30
2022-08-17T16:03:15.925Z,3.20
2022-08-17T16:04:48.936Z,3.10
2022-08-17T16:07:26.783Z,3.42
2022-08-17T16:09:54.599Z,3.30
2022-08-17T16:12:22.314Z,3.35
2022-08-17T16:14:53.277Z,7.25
2022-08-17T16:17:38.953Z,4.10
2022-08-17T16:20:20.262Z,3.80
2022-08-17T16:22:50.876Z,3.20
2022-08-17T16:25:50.414Z,3.58
2022-08-17T16:28:16.235Z,3.80
2022-08-17T16:30:44.412Z,3.80
2022-08-17T16:33:13.508Z,3.85
2022-08-17T16:35:41.927Z,3.85
2022-08-17T16:38:10.969Z,3.83
2022-08-17T16:40:39.007Z,4.13
2022-08-17T16:43:10.534Z,4.00
2022-08-17T16:45:40.304Z,3.75
2022-08-17T16:48:10.122Z,4.53
2022-08-17T16:50:38.003Z,4.10
2022-08-17T16:53:17.749Z,4.00
2022-08-17T16:55:48.581Z,4.05
2022-08-17T16:58:16.244Z,4.20
2022-08-17T17:00:45.871Z,3.38
2022-08-17T17:03:27.756Z,3.85
2022-08-17T17:06:31.428Z,3.67
2022-08-17T17:09:07.806Z,3.60
2022-08-17T17:11:52.860Z,3.47
2022-08-17T17:14:43.708Z,3.47
2022-08-17T17:17:36.464Z,3.25
2022-08-17T17:20:25.958Z,3.20
2022-08-17T17:23:11.319Z,2.90
2022-08-17T17:26:48.538Z,4.00
2022-08-17T17:30:02.336Z,5.10
2022-08-17T17:33:48.072Z,3.50
2022-08-17T17:36:41.263Z,3.55
2022-08-17T17:40:24.357Z,3.17
2022-08-17T17:43:05.424Z,3.35
2022-08-17T17:45:54.175Z,3.42
2022-08-17T17:49:37.126Z,4.07
2022-08-17T17:53:19.934Z,3.65
2022-08-17T17:56:40.269Z,3.38
2022-08-17T18:00:27.407Z,3.92
2022-08-17T18:04:16.974Z,3.97
2022-08-17T18:08:10.843Z,4.07
2022-08-17T18:11:24.231Z,3.92
2022-08-17T18:14:26.872Z,3.70
2022-08-17T18:18:09.651Z,3.53
2022-08-17T18:20:54.024Z,3.92
2022-08-17T18:23:27.892Z,3.70
2022-08-17T18:27:11.269Z,4.13
2022-08-17T18:30:54.020Z,4.20
2022-08-17T18:34:48.320Z,3.85
2022-08-17T18:37:38.352Z,3.92
2022-08-17T18:40:37.540Z,3.70
2022-08-17T18:43:24.430Z,3.90
2022-08-17T18:47:07.410Z,4.00
2022-08-17T18:50:51.367Z,4.40
2022-08-17T18:54:37.556Z,4.13
2022-08-17T18:57:07.715Z,4.47
2022-08-17T18:59:49.511Z,4.20
2022-08-17T19:03:32.292Z,3.97
2022-08-17T19:07:14.819Z,4.07
2022-08-17T19:10:57.313Z,4.28
2022-08-17T19:14:39.843Z,4.10
2022-08-17T19:17:48.556Z,3.78
2022-08-17T19:20:38.067Z,4.43
2022-08-17T19:24:20.477Z,4.13
2022-08-17T19:27:16.680Z,3.90
2022-08-17T19:30:08.538Z,4.05
2022-08-17T19:32:36.473Z,4.50
2022-08-17T19:35:11.416Z,4.18
2022-08-17T19:38:13.427Z,4.35
2022-08-17T19:41:20.388Z,4.72
2022-08-17T19:44:32.142Z,4.88
2022-08-17T19:47:53.232Z,4.55
2022-08-17T19:51:08.210Z,4.47
2022-08-17T19:54:06.442Z,4.47
2022-08-17T19:57:02.912Z,4.32
2022-08-17T20:00:11.495Z,4.35
2022-08-17T20:03:06.309Z,4.05
2022-08-17T20:06:10.838Z,4.15
2022-08-17T20:08:43.313Z,4.30
2022-08-17T20:11:31.712Z,4.20
2022-08-17T20:14:20.029Z,4.22
2022-08-17T20:16:48.171Z,4.03
2022-08-17T20:19:57.389Z,4.68
2022-08-17T20:22:49.357Z,4.10
2022-08-17T20:25:45.413Z,4.75
2022-08-17T20:29:13.870Z,4.22
2022-08-17T20:31:56.441Z,4.57
2022-08-17T20:34:30.830Z,4.13
2022-08-17T20:37:31.228Z,4.05
2022-08-17T20:39:58.401Z,4.32
2022-08-17T20:42:27.228Z,4.15
2022-08-17T20:45:20.671Z,4.25
2022-08-17T20:48:33.338Z,4.82
2022-08-17T20:51:00.601Z,4.38
2022-08-17T20:54:06.825Z,4.57
2022-08-17T20:56:44.259Z,4.10
2022-08-17T20:59:27.512Z,4.18
2022-08-17T21:02:18.139Z,4.28
2022-08-17T21:05:23.337Z,4.32
2022-08-17T21:08:16.685Z,4.70
2022-08-17T21:10:47.038Z,4.72
2022-08-17T21:13:15.721Z,5.35
2022-08-17T21:16:21.235Z,5.45
2022-08-17T21:20:13.281Z,6.20
2022-08-17T21:22:59.005Z,5.82
2022-08-17T21:26:50.705Z,5.65
2022-08-17T21:29:31.912Z,6.57
2022-08-17T21:32:03.092Z,6.53
2022-08-17T21:35:02.234Z,5.75
2022-08-17T21:38:45.448Z,5.97
2022-08-17T21:41:57.962Z,6.38
2022-08-17T21:45:41.182Z,6.30
2022-08-17T21:49:23.572Z,6.20
2022-08-17T21:53:08.732Z,5.28
2022-08-17T21:56:51.763Z,5.70
2022-08-17T22:00:34.300Z,5.68
2022-08-17T22:03:24.610Z,5.72
2022-08-17T22:07:07.211Z,5.85
2022-08-17T22:10:51.187Z,5.63
2022-08-17T22:14:53.370Z,5.85
2022-08-17T22:18:36.815Z,4.68
2022-08-17T22:21:06.073Z,4.68
2022-08-17T22:24:06.589Z,4.85
2022-08-17T22:27:11.538Z,4.80
2022-08-17T22:29:59.365Z,4.68
2022-08-17T22:32:43.761Z,5.00
2022-08-17T22:35:29.170Z,4.90
2022-08-17T22:37:58.946Z,5.20
2022-08-17T22:40:34.420Z,4.85
2022-08-17T22:43:03.464Z,4.70
2022-08-17T22:45:31.134Z,5.38
2022-08-17T22:48:01.982Z,5.30
2022-08-17T22:50:33.012Z,5.30
2022-08-17T22:53:35.620Z,5.45
2022-08-17T22:56:22.880Z,5.43
2022-08-17T22:59:17.458Z,5.80
2022-08-17T23:02:23.283Z,6.40
2022-08-17T23:05:11.070Z,6.65
2022-08-17T23:07:39.735Z,6.80
2022-08-17T23:10:12.495Z,7.70
2022-08-17T23:12:40.794Z,8.10
2022-08-17T23:15:17.800Z,8.52
2022-08-17T23:17:45.896Z,9.23
2022-08-17T23:20:17.415Z,9.75
2022-08-17T23:22:52.816Z,10.00
2022-08-17T23:25:33.540Z,10.27
2022-08-17T23:28:07.274Z,10.98
2022-08-17T23:30:42.533Z,10.88
2022-08-17T23:33:31.172Z,10.35
2022-08-17T23:36:01.449Z,10.95
2022-08-17T23:38:28.889Z,12.68
2022-08-17T23:41:04.389Z,12.32
2022-08-17T23:43:31.849Z,12.40
2022-08-17T23:46:00.773Z,12.68
2022-08-17T23:48:34.931Z,12.65
2022-08-17T23:51:14.004Z,12.52
2022-08-17T23:53:47.897Z,12.50
2022-08-17T23:56:18.244Z,12.75
2022-08-17T23:58:45.471Z,13.77
